sensor_id;sensor_type;location;lat;lon;timestamp;pressure;altitude;pressure_sealevel;temperature;humidity
70546;BME280;58098;51.680;5.134;2023-05-10T00:00:26;100906.34;;;12.08;100.00
70546;BME280;58098;51.680;5.134;2023-05-10T00:02:52;100903.13;;;12.05;100.00
70546;BME280;58098;51.680;5.134;2023-05-10T00:05:17;100908.97;;;12.08;100.00
70546;BME280;58098;51.680;5.134;2023-05-10T00:07:42;100902.59;;;12.01;100.00
70546;BME280;58098;51.680;5.134;2023-05-10T00:10:10;100911.97;;;12.04;100.00
70546;BME280;58098;51.680;5.134;2023-05-10T00:12:35;100918.28;;;12.01;100.00
70546;BME280;58098;51.680;5.134;2023-05-10T00:15:01;100909.28;;;11.94;100.00
70546;BME280;58098;51.680;5.134;2023-05-10T00:17:26;100906.09;;;11.90;100.00
70546;BME280;58098;51.680;5.134;2023-05-10T00:19:51;100892.94;;;11.81;100.00
70546;BME280;58098;51.680;5.134;2023-05-10T00:22:16;100899.97;;;11.80;100.00
70546;BME280;58098;51.680;5.134;2023-05-10T00:24:42;100902.56;;;11.80;100.00
70546;BME280;58098;51.680;5.134;2023-05-10T00:27:07;100914.22;;;11.87;100.00
70546;BME280;58098;51.680;5.134;2023-05-10T00:29:32;100904.25;;;11.81;100.00
70546;BME280;58098;51.680;5.134;2023-05-10T00:31:58;100906.72;;;11.83;100.00
70546;BME280;58098;51.680;5.134;2023-05-10T00:34:24;100910.47;;;11.90;100.00
70546;BME280;58098;51.680;5.134;2023-05-10T00:36:49;100915.84;;;11.88;100.00
70546;BME280;58098;51.680;5.134;2023-05-10T00:39:15;100917.53;;;11.89;100.00
70546;BME280;58098;51.680;5.134;2023-05-10T00:41:40;100911.22;;;11.92;100.00
70546;BME280;58098;51.680;5.134;2023-05-10T00:44:06;100913.69;;;11.93;100.00
70546;BME280;58098;51.680;5.134;2023-05-10T00:46:31;100908.59;;;11.92;100.00
70546;BME280;58098;51.680;5.134;2023-05-10T00:48:57;100909.16;;;11.96;100.00
70546;BME280;58098;51.680;5.134;2023-05-10T00:51:23;100912.47;;;11.98;100.00
70546;BME280;58098;51.680;5.134;2023-05-10T00:53:48;100890.78;;;11.86;100.00
70546;BME280;58098;51.680;5.134;2023-05-10T00:56:15;100903.09;;;11.95;100.00
70546;BME280;58098;51.680;5.134;2023-05-10T00:58:41;100900.75;;;11.92;100.00
70546;BME280;58098;51.680;5.134;2023-05-10T01:01:06;100900.03;;;11.90;100.00
70546;BME280;58098;51.680;5.134;2023-05-10T01:03:32;100892.31;;;11.88;100.00
70546;BME280;58098;51.680;5.134;2023-05-10T01:05:58;100902.47;;;11.82;100.00
70546;BME280;58098;51.680;5.134;2023-05-10T01:08:24;100890.03;;;11.74;100.00
70546;BME280;58098;51.680;5.134;2023-05-10T01:10:50;100883.88;;;11.64;100.00
70546;BME280;58098;51.680;5.134;2023-05-10T01:13:26;100869.78;;;11.56;100.00
70546;BME280;58098;51.680;5.134;2023-05-10T01:15:54;100895.78;;;11.57;100.00
70546;BME280;58098;51.680;5.134;2023-05-10T01:18:20;100886.91;;;11.49;100.00
70546;BME280;58098;51.680;5.134;2023-05-10T01:20:48;100878.03;;;11.40;100.00
70546;BME280;58098;51.680;5.134;2023-05-10T01:26:02;100896.47;;;11.39;100.00
70546;BME280;58098;51.680;5.134;2023-05-10T01:34:07;100885.81;;;11.19;100.00
70546;BME280;58098;51.680;5.134;2023-05-10T01:36:48;100885.13;;;11.17;100.00
70546;BME280;58098;51.680;5.134;2023-05-10T01:39:17;100901.03;;;11.25;100.00
70546;BME280;58098;51.680;5.134;2023-05-10T01:41:55;100909.06;;;11.34;100.00
70546;BME280;58098;51.680;5.134;2023-05-10T01:47:02;100916.31;;;11.30;100.00
70546;BME280;58098;51.680;5.134;2023-05-10T01:49:32;100919.75;;;11.31;100.00
70546;BME280;58098;51.680;5.134;2023-05-10T01:52:11;100918.38;;;11.26;100.00
70546;BME280;58098;51.680;5.134;2023-05-10T01:54:41;100907.22;;;11.13;100.00
70546;BME280;58098;51.680;5.134;2023-05-10T01:57:08;100909.22;;;11.21;100.00
70546;BME280;58098;51.680;5.134;2023-05-10T01:59:38;100919.44;;;11.24;100.00
70546;BME280;58098;51.680;5.134;2023-05-10T02:02:06;100916.94;;;11.22;100.00
70546;BME280;58098;51.680;5.134;2023-05-10T02:04:35;100910.78;;;11.12;100.00
70546;BME280;58098;51.680;5.134;2023-05-10T02:07:02;100916.38;;;11.19;100.00
70546;BME280;58098;51.680;5.134;2023-05-10T02:09:29;100902.25;;;11.10;100.00
70546;BME280;58098;51.680;5.134;2023-05-10T02:11:59;100922.84;;;11.24;100.00
70546;BME280;58098;51.680;5.134;2023-05-10T02:14:29;100924.28;;;11.28;100.00
70546;BME280;58098;51.680;5.134;2023-05-10T02:16:56;100923.31;;;11.29;100.00
70546;BME280;58098;51.680;5.134;2023-05-10T02:19:25;100918.94;;;11.30;100.00
70546;BME280;58098;51.680;5.134;2023-05-10T02:21:51;100922.00;;;11.35;100.00
70546;BME280;58098;51.680;5.134;2023-05-10T02:24:17;100938.34;;;11.48;100.00
70546;BME280;58098;51.680;5.134;2023-05-10T02:26:44;100915.47;;;11.41;100.00
70546;BME280;58098;51.680;5.134;2023-05-10T02:29:10;100922.31;;;11.42;100.00
70546;BME280;58098;51.680;5.134;2023-05-10T02:31:37;100925.41;;;11.47;100.00
70546;BME280;58098;51.680;5.134;2023-05-10T02:34:05;100926.47;;;11.44;100.00
70546;BME280;58098;51.680;5.134;2023-05-10T02:36:31;100914.75;;;11.39;100.00
70546;BME280;58098;51.680;5.134;2023-05-10T02:38:58;100933.00;;;11.50;100.00
70546;BME280;58098;51.680;5.134;2023-05-10T02:41:25;100945.06;;;11.62;100.00
70546;BME280;58098;51.680;5.134;2023-05-10T02:43:56;100904.50;;;11.47;100.00
70546;BME280;58098;51.680;5.134;2023-05-10T02:46:22;100929.97;;;11.65;100.00
70546;BME280;58098;51.680;5.134;2023-05-10T02:48:48;100931.41;;;11.69;100.00
70546;BME280;58098;51.680;5.134;2023-05-10T02:51:15;100929.09;;;11.76;100.00
70546;BME280;58098;51.680;5.134;2023-05-10T02:53:44;100931.22;;;11.82;100.00
70546;BME280;58098;51.680;5.134;2023-05-10T02:56:19;100939.25;;;11.90;100.00
70546;BME280;58098;51.680;5.134;2023-05-10T02:58:48;100945.75;;;11.96;100.00
70546;BME280;58098;51.680;5.134;2023-05-10T03:01:13;100945.75;;;11.96;100.00
70546;BME280;58098;51.680;5.134;2023-05-10T03:03:39;100947.03;;;12.01;100.00
70546;BME280;58098;51.680;5.134;2023-05-10T03:06:04;100927.84;;;11.91;100.00
70546;BME280;58098;51.680;5.134;2023-05-10T03:08:30;100943.75;;;11.99;100.00
70546;BME280;58098;51.680;5.134;2023-05-10T03:11:14;100944.56;;;12.00;100.00
70546;BME280;58098;51.680;5.134;2023-05-10T03:14:07;100953.44;;;12.08;100.00
70546;BME280;58098;51.680;5.134;2023-05-10T03:16:46;100945.56;;;12.08;100.00
70546;BME280;58098;51.680;5.134;2023-05-10T03:19:15;100947.94;;;12.11;100.00
70546;BME280;58098;51.680;5.134;2023-05-10T03:21:47;100939.91;;;12.03;100.00
70546;BME280;58098;51.680;5.134;2023-05-10T03:24:15;100960.78;;;12.14;100.00
70546;BME280;58098;51.680;5.134;2023-05-10T03:26:43;100938.81;;;12.06;100.00
70546;BME280;58098;51.680;5.134;2023-05-10T03:29:10;100954.81;;;12.12;100.00
70546;BME280;58098;51.680;5.134;2023-05-10T03:31:38;100952.19;;;12.12;100.00
70546;BME280;58098;51.680;5.134;2023-05-10T03:34:03;100951.50;;;12.10;100.00
70546;BME280;58098;51.680;5.134;2023-05-10T03:36:28;100966.81;;;12.15;100.00
70546;BME280;58098;51.680;5.134;2023-05-10T03:38:54;100959.25;;;12.12;100.00
70546;BME280;58098;51.680;5.134;2023-05-10T03:41:19;100949.13;;;12.07;100.00
70546;BME280;58098;51.680;5.134;2023-05-10T03:43:45;100941.56;;;12.04;100.00
70546;BME280;58098;51.680;5.134;2023-05-10T03:46:11;100951.50;;;12.10;100.00
70546;BME280;58098;51.680;5.134;2023-05-10T03:48:36;100965.28;;;12.12;100.00
70546;BME280;58098;51.680;5.134;2023-05-10T03:51:01;100953.44;;;12.08;100.00
70546;BME280;58098;51.680;5.134;2023-05-10T03:53:27;100965.28;;;12.12;100.00
70546;BME280;58098;51.680;5.134;2023-05-10T03:55:52;100962.81;;;12.11;100.00
70546;BME280;58098;51.680;5.134;2023-05-10T03:58:18;100958.66;;;12.08;100.00
70546;BME280;58098;51.680;5.134;2023-05-10T04:00:43;100959.50;;;12.09;100.00
70546;BME280;58098;51.680;5.134;2023-05-10T04:03:13;100941.22;;;11.98;100.00
70546;BME280;58098;51.680;5.134;2023-05-10T04:05:39;100962.94;;;12.09;100.00
70546;BME280;58098;51.680;5.134;2023-05-10T04:08:05;100966.06;;;12.03;100.00
70546;BME280;58098;51.680;5.134;2023-05-10T04:10:30;100961.50;;;12.05;100.00
70546;BME280;58098;51.680;5.134;2023-05-10T04:12:56;100953.84;;;11.92;100.00
70546;BME280;58098;51.680;5.134;2023-05-10T04:15:21;100946.91;;;11.82;100.00
70546;BME280;58098;51.680;5.134;2023-05-10T04:17:47;100959.91;;;11.93;100.00
70546;BME280;58098;51.680;5.134;2023-05-10T04:20:12;100955.47;;;11.84;100.00
70546;BME280;58098;51.680;5.134;2023-05-10T04:22:38;100956.28;;;11.84;100.00
70546;BME280;58098;51.680;5.134;2023-05-10T04:25:03;100960.00;;;11.82;100.00
70546;BME280;58098;51.680;5.134;2023-05-10T04:27:29;100962.84;;;11.79;100.00
70546;BME280;58098;51.680;5.134;2023-05-10T04:29:55;100960.38;;;11.77;100.00
70546;BME280;58098;51.680;5.134;2023-05-10T04:32:20;100958.84;;;11.75;100.00
70546;BME280;58098;51.680;5.134;2023-05-10T04:34:46;100963.94;;;11.76;100.00
70546;BME280;58098;51.680;5.134;2023-05-10T04:37:11;100967.63;;;11.74;100.00
70546;BME280;58098;51.680;5.134;2023-05-10T04:39:36;100969.28;;;11.75;100.00
70546;BME280;58098;51.680;5.134;2023-05-10T04:42:03;100983.53;;;11.82;100.00
70546;BME280;58098;51.680;5.134;2023-05-10T04:44:29;100970.81;;;11.77;100.00
70546;BME280;58098;51.680;5.134;2023-05-10T04:46:54;100956.22;;;11.75;100.00
70546;BME280;58098;51.680;5.134;2023-05-10T04:49:20;100969.41;;;11.73;100.00
70546;BME280;58098;51.680;5.134;2023-05-10T04:51:45;100972.84;;;11.74;100.00
70546;BME280;58098;51.680;5.134;2023-05-10T04:54:11;100970.56;;;11.80;100.00
70546;BME280;58098;51.680;5.134;2023-05-10T04:56:36;100977.31;;;11.83;100.00
70546;BME280;58098;51.680;5.134;2023-05-10T04:59:01;100979.94;;;11.83;100.00
70546;BME280;58098;51.680;5.134;2023-05-10T05:01:27;100966.84;;;11.83;100.00
70546;BME280;58098;51.680;5.134;2023-05-10T05:03:52;100972.22;;;11.81;100.00
70546;BME280;58098;51.680;5.134;2023-05-10T05:06:18;100978.03;;;11.85;100.00
70546;BME280;58098;51.680;5.134;2023-05-10T05:08:43;100981.84;;;11.81;100.00
70546;BME280;58098;51.680;5.134;2023-05-10T05:11:09;100976.75;;;11.79;100.00
70546;BME280;58098;51.680;5.134;2023-05-10T05:13:34;100981.00;;;11.80;100.00
70546;BME280;58098;51.680;5.134;2023-05-10T05:16:01;100994.53;;;11.85;100.00
70546;BME280;58098;51.680;5.134;2023-05-10T05:18:27;100983.53;;;11.82;100.00
70546;BME280;58098;51.680;5.134;2023-05-10T05:20:53;100982.44;;;11.84;100.00
70546;BME280;58098;51.680;5.134;2023-05-10T05:23:18;100986.59;;;11.87;100.00
70546;BME280;58098;51.680;5.134;2023-05-10T05:25:45;100997.69;;;12.00;100.00
70546;BME280;58098;51.680;5.134;2023-05-10T05:28:11;100987.03;;;11.92;100.00
70546;BME280;58098;51.680;5.134;2023-05-10T05:30:36;100990.22;;;11.96;100.00
70546;BME280;58098;51.680;5.134;2023-05-10T05:33:01;100989.97;;;11.99;100.00
70546;BME280;58098;51.680;5.134;2023-05-10T05:35:27;100989.13;;;11.98;100.00
70546;BME280;58098;51.680;5.134;2023-05-10T05:37:52;101003.75;;;12.01;100.00
70546;BME280;58098;51.680;5.134;2023-05-10T05:40:17;100996.28;;;11.96;100.00
70546;BME280;58098;51.680;5.134;2023-05-10T05:42:42;100997.56;;;12.02;100.00
70546;BME280;58098;51.680;5.134;2023-05-10T05:45:09;101007.66;;;12.06;100.00
70546;BME280;58098;51.680;5.134;2023-05-10T05:47:38;101014.03;;;12.13;100.00
70546;BME280;58098;51.680;5.134;2023-05-10T05:50:04;101013.78;;;12.16;100.00
70546;BME280;58098;51.680;5.134;2023-05-10T05:52:30;101012.72;;;12.19;100.00
70546;BME280;58098;51.680;5.134;2023-05-10T05:54:55;100996.56;;;12.14;100.00
70546;BME280;58098;51.680;5.134;2023-05-10T05:57:20;101009.81;;;12.22;100.00
70546;BME280;58098;51.680;5.134;2023-05-10T05:59:46;101009.13;;;12.20;100.00
70546;BME280;58098;51.680;5.134;2023-05-10T06:02:11;101026.56;;;12.30;100.00
70546;BME280;58098;51.680;5.134;2023-05-10T06:04:37;101014.69;;;12.26;100.00
70546;BME280;58098;51.680;5.134;2023-05-10T06:07:02;101032.25;;;12.35;100.00
70546;BME280;58098;51.680;5.134;2023-05-10T06:09:28;101020.22;;;12.33;100.00
70546;BME280;58098;51.680;5.134;2023-05-10T06:11:53;101030.75;;;12.42;100.00
70546;BME280;58098;51.680;5.134;2023-05-10T06:14:20;101038.63;;;12.42;100.00
70546;BME280;58098;51.680;5.134;2023-05-10T06:16:45;101035.78;;;12.34;100.00
70546;BME280;58098;51.680;5.134;2023-05-10T06:19:11;101025.97;;;12.27;100.00
70546;BME280;58098;51.680;5.134;2023-05-10T06:21:36;101033.56;;;12.30;100.00
70546;BME280;58098;51.680;5.134;2023-05-10T06:24:02;101030.25;;;12.28;100.00
70546;BME280;58098;51.680;5.134;2023-05-10T06:26:27;101048.44;;;12.29;100.00
70546;BME280;58098;51.680;5.134;2023-05-10T06:28:53;101041.22;;;12.22;100.00
70546;BME280;58098;51.680;5.134;2023-05-10T06:31:18;101033.00;;;12.26;100.00
70546;BME280;58098;51.680;5.134;2023-05-10T06:33:43;101056.66;;;12.25;100.00
70546;BME280;58098;51.680;5.134;2023-05-10T06:36:09;101057.38;;;12.27;100.00
70546;BME280;58098;51.680;5.134;2023-05-10T06:38:34;101044.91;;;12.19;100.00
70546;BME280;58098;51.680;5.134;2023-05-10T06:40:59;101060.94;;;12.26;100.00
70546;BME280;58098;51.680;5.134;2023-05-10T06:43:25;101059.53;;;12.22;100.00
70546;BME280;58098;51.680;5.134;2023-05-10T06:45:51;101061.56;;;12.18;100.00
70546;BME280;58098;51.680;5.134;2023-05-10T06:48:17;101071.53;;;12.24;100.00
70546;BME280;58098;51.680;5.134;2023-05-10T06:50:42;101054.22;;;12.12;100.00
70546;BME280;58098;51.680;5.134;2023-05-10T06:53:07;101066.94;;;12.17;100.00
70546;BME280;58098;51.680;5.134;2023-05-10T06:55:33;101075.59;;;12.17;100.00
70546;BME280;58098;51.680;5.134;2023-05-10T06:57:58;101072.44;;;12.14;100.00
70546;BME280;58098;51.680;5.134;2023-05-10T07:00:23;101068.28;;;12.11;100.00
70546;BME280;58098;51.680;5.134;2023-05-10T07:02:49;101075.97;;;12.13;100.00
70546;BME280;58098;51.680;5.134;2023-05-10T07:05:14;101073.38;;;12.13;100.00
70546;BME280;58098;51.680;5.134;2023-05-10T07:07:40;101066.50;;;12.12;100.00
70546;BME280;58098;51.680;5.134;2023-05-10T07:10:06;101079.44;;;12.13;100.00
70546;BME280;58098;51.680;5.134;2023-05-10T07:12:32;101088.91;;;12.25;100.00
70546;BME280;58098;51.680;5.134;2023-05-10T07:14:57;101091.97;;;12.30;100.00
70546;BME280;58098;51.680;5.134;2023-05-10T07:17:23;101087.22;;;12.24;100.00
70546;BME280;58098;51.680;5.134;2023-05-10T07:19:48;101094.59;;;12.30;100.00
70546;BME280;58098;51.680;5.134;2023-05-10T07:22:14;101095.44;;;12.31;100.00
70546;BME280;58098;51.680;5.134;2023-05-10T07:24:40;101082.44;;;12.29;100.00
70546;BME280;58098;51.680;5.134;2023-05-10T07:27:05;101082.28;;;12.42;100.00
70546;BME280;58098;51.680;5.134;2023-05-10T07:29:31;101095.09;;;12.66;100.00
70546;BME280;58098;51.680;5.134;2023-05-10T07:31:56;101096.69;;;12.78;100.00
70546;BME280;58098;51.680;5.134;2023-05-10T07:34:22;101083.16;;;12.93;100.00
70546;BME280;58098;51.680;5.134;2023-05-10T07:36:47;101094.50;;;13.03;100.00
70546;BME280;58098;51.680;5.134;2023-05-10T07:39:12;101091.53;;;13.08;100.00
70546;BME280;58098;51.680;5.134;2023-05-10T07:41:37;101094.44;;;13.14;100.00
70546;BME280;58098;51.680;5.134;2023-05-10T07:44:04;101092.94;;;13.21;100.00
70546;BME280;58098;51.680;5.134;2023-05-10T07:46:29;101105.75;;;13.45;100.00
70546;BME280;58098;51.680;5.134;2023-05-10T07:48:55;101087.53;;;13.53;100.00
70546;BME280;58098;51.680;5.134;2023-05-10T07:51:20;101102.13;;;13.76;100.00
70546;BME280;58098;51.680;5.134;2023-05-10T07:53:46;101095.63;;;13.80;100.00
70546;BME280;58098;51.680;5.134;2023-05-10T07:58:47;101090.13;;;13.93;100.00
70546;BME280;58098;51.680;5.134;2023-05-10T08:01:12;101100.88;;;14.00;100.00
70546;BME280;58098;51.680;5.134;2023-05-10T08:03:37;101101.47;;;14.22;100.00
70546;BME280;58098;51.680;5.134;2023-05-10T08:06:03;101112.56;;;14.45;100.00
70546;BME280;58098;51.680;5.134;2023-05-10T08:08:28;101106.59;;;14.62;100.00
70546;BME280;58098;51.680;5.134;2023-05-10T08:10:53;101122.31;;;14.81;100.00
70546;BME280;58098;51.680;5.134;2023-05-10T08:13:19;101126.75;;;14.81;100.00
70546;BME280;58098;51.680;5.134;2023-05-10T08:15:44;101132.44;;;14.67;100.00
70546;BME280;58098;51.680;5.134;2023-05-10T08:18:09;101125.94;;;14.71;100.00
70546;BME280;58098;51.680;5.134;2023-05-10T08:20:35;101128.13;;;14.75;100.00
70546;BME280;58098;51.680;5.134;2023-05-10T08:23:00;101127.69;;;14.80;100.00
70546;BME280;58098;51.680;5.134;2023-05-10T08:25:25;101143.75;;;14.86;100.00
70546;BME280;58098;51.680;5.134;2023-05-10T08:27:51;101134.09;;;14.87;100.00
70546;BME280;58098;51.680;5.134;2023-05-10T08:30:16;101137.47;;;15.06;100.00
70546;BME280;58098;51.680;5.134;2023-05-10T08:32:42;101141.47;;;15.10;100.00
70546;BME280;58098;51.680;5.134;2023-05-10T08:35:07;101134.81;;;15.26;100.00
70546;BME280;58098;51.680;5.134;2023-05-10T08:37:33;101151.75;;;15.41;100.00
70546;BME280;58098;51.680;5.134;2023-05-10T08:39:58;101156.16;;;15.59;100.00
70546;BME280;58098;51.680;5.134;2023-05-10T08:42:25;101156.78;;;15.98;100.00
70546;BME280;58098;51.680;5.134;2023-05-10T08:44:53;101154.53;;;16.21;100.00
70546;BME280;58098;51.680;5.134;2023-05-10T08:47:20;101147.69;;;16.45;100.00
70546;BME280;58098;51.680;5.134;2023-05-10T08:49:47;101159.84;;;16.56;100.00
70546;BME280;58098;51.680;5.134;2023-05-10T08:52:15;101144.66;;;16.40;100.00
70546;BME280;58098;51.680;5.134;2023-05-10T08:54:41;101161.84;;;16.27;100.00
70546;BME280;58098;51.680;5.134;2023-05-10T08:57:07;101170.69;;;16.08;100.00
70546;BME280;58098;51.680;5.134;2023-05-10T08:59:32;101160.28;;;15.89;100.00
70546;BME280;58098;51.680;5.134;2023-05-10T09:01:58;101158.34;;;15.91;100.00
70546;BME280;58098;51.680;5.134;2023-05-10T09:04:24;101160.41;;;16.15;100.00
70546;BME280;58098;51.680;5.134;2023-05-10T09:06:50;101177.19;;;16.31;100.00
70546;BME280;58098;51.680;5.134;2023-05-10T09:09:16;101166.56;;;16.41;100.00
70546;BME280;58098;51.680;5.134;2023-05-10T09:11:43;101171.97;;;16.67;100.00
70546;BME280;58098;51.680;5.134;2023-05-10T09:14:09;101168.78;;;16.81;100.00
70546;BME280;58098;51.680;5.134;2023-05-10T09:16:34;101162.66;;;16.80;100.00
70546;BME280;58098;51.680;5.134;2023-05-10T09:19:00;101180.34;;;16.88;100.00
70546;BME280;58098;51.680;5.134;2023-05-10T09:21:25;101173.84;;;16.74;100.00
70546;BME280;58098;51.680;5.134;2023-05-10T09:23:50;101184.97;;;16.68;100.00
70546;BME280;58098;51.680;5.134;2023-05-10T09:26:22;101171.53;;;16.26;100.00
70546;BME280;58098;51.680;5.134;2023-05-10T09:28:54;101187.06;;;16.02;100.00
70546;BME280;58098;51.680;5.134;2023-05-10T09:31:21;101184.38;;;15.67;100.00
70546;BME280;58098;51.680;5.134;2023-05-10T09:33:47;101202.19;;;15.73;100.00
70546;BME280;58098;51.680;5.134;2023-05-10T09:36:13;101203.31;;;15.70;100.00
70546;BME280;58098;51.680;5.134;2023-05-10T09:38:46;101203.47;;;15.69;100.00
70546;BME280;58098;51.680;5.134;2023-05-10T09:41:19;101208.81;;;15.77;100.00
70546;BME280;58098;51.680;5.134;2023-05-10T09:43:45;101189.72;;;15.75;100.00
70546;BME280;58098;51.680;5.134;2023-05-10T09:46:11;101200.22;;;15.75;100.00
70546;BME280;58098;51.680;5.134;2023-05-10T09:48:46;101204.38;;;15.77;100.00
70546;BME280;58098;51.680;5.134;2023-05-10T09:51:23;101213.00;;;15.70;100.00
70546;BME280;58098;51.680;5.134;2023-05-10T09:54:09;101225.47;;;15.68;100.00
70546;BME280;58098;51.680;5.134;2023-05-10T09:56:35;101212.63;;;15.55;100.00
70546;BME280;58098;51.680;5.134;2023-05-10T09:59:03;101211.13;;;15.53;100.00
70546;BME280;58098;51.680;5.134;2023-05-10T10:01:29;101221.66;;;15.53;100.00
70546;BME280;58098;51.680;5.134;2023-05-10T10:03:54;101216.78;;;15.58;100.00
70546;BME280;58098;51.680;5.134;2023-05-10T10:06:19;101214.66;;;15.71;100.00
70546;BME280;58098;51.680;5.134;2023-05-10T10:08:45;101218.81;;;15.73;100.00
70546;BME280;58098;51.680;5.134;2023-05-10T10:11:11;101232.88;;;15.82;100.00
70546;BME280;58098;51.680;5.134;2023-05-10T10:13:36;101227.09;;;15.78;100.00
70546;BME280;58098;51.680;5.134;2023-05-10T10:16:02;101221.88;;;15.69;100.00
70546;BME280;58098;51.680;5.134;2023-05-10T10:18:28;101218.91;;;15.45;100.00
70546;BME280;58098;51.680;5.134;2023-05-10T10:20:54;101231.09;;;15.46;100.00
70546;BME280;58098;51.680;5.134;2023-05-10T10:23:20;101223.59;;;15.41;100.00
70546;BME280;58098;51.680;5.134;2023-05-10T10:25:46;101233.59;;;15.47;100.00
70546;BME280;58098;51.680;5.134;2023-05-10T10:30:55;101235.44;;;15.74;100.00
70546;BME280;58098;51.680;5.134;2023-05-10T10:33:36;101235.13;;;16.04;100.00
70546;BME280;58098;51.680;5.134;2023-05-10T10:36:05;101225.94;;;16.35;100.00
70546;BME280;58098;51.680;5.134;2023-05-10T10:38:54;101238.28;;;16.80;100.00
70546;BME280;58098;51.680;5.134;2023-05-10T10:41:31;101241.78;;;17.06;100.00
70546;BME280;58098;51.680;5.134;2023-05-10T10:57:27;101232.56;;;18.13;100.00
70546;BME280;58098;51.680;5.134;2023-05-10T11:00:18;101231.25;;;18.33;100.00
70546;BME280;58098;51.680;5.134;2023-05-10T11:02:44;101224.13;;;18.25;100.00
70546;BME280;58098;51.680;5.134;2023-05-10T11:05:34;101238.66;;;18.21;100.00
70546;BME280;58098;51.680;5.134;2023-05-10T11:10:36;101232.28;;;18.32;100.00
70546;BME280;58098;51.680;5.134;2023-05-10T11:13:06;101239.50;;;18.22;100.00
70546;BME280;58098;51.680;5.134;2023-05-10T11:15:37;101232.56;;;18.21;100.00
70546;BME280;58098;51.680;5.134;2023-05-10T11:23:18;101234.69;;;18.59;100.00
70546;BME280;58098;51.680;5.134;2023-05-10T11:25:45;101229.06;;;18.86;100.00
70546;BME280;58098;51.680;5.134;2023-05-10T11:28:14;101240.13;;;19.46;100.00
70546;BME280;58098;51.680;5.134;2023-05-10T11:30:41;101246.69;;;19.66;100.00
70546;BME280;58098;51.680;5.134;2023-05-10T11:33:08;101231.38;;;19.38;100.00
70546;BME280;58098;51.680;5.134;2023-05-10T11:35:38;101242.28;;;19.27;100.00
70546;BME280;58098;51.680;5.134;2023-05-10T11:38:10;101242.59;;;19.16;100.00
70546;BME280;58098;51.680;5.134;2023-05-10T11:40:37;101244.09;;;18.78;100.00
70546;BME280;58098;51.680;5.134;2023-05-10T11:43:03;101260.69;;;18.38;100.00
70546;BME280;58098;51.680;5.134;2023-05-10T11:45:29;101258.00;;;18.22;100.00
70546;BME280;58098;51.680;5.134;2023-05-10T11:47:57;101250.84;;;18.06;100.00
70546;BME280;58098;51.680;5.134;2023-05-10T11:50:23;101268.19;;;18.09;100.00
70546;BME280;58098;51.680;5.134;2023-05-10T11:52:53;101266.44;;;17.92;100.00
70546;BME280;58098;51.680;5.134;2023-05-10T11:55:19;101268.56;;;17.54;100.00
70546;BME280;58098;51.680;5.134;2023-05-10T11:57:44;101248.44;;;17.10;100.00
70546;BME280;58098;51.680;5.134;2023-05-10T12:00:11;101253.53;;;16.94;100.00
70546;BME280;58098;51.680;5.134;2023-05-10T12:02:37;101254.09;;;16.80;100.00
70546;BME280;58098;51.680;5.134;2023-05-10T12:05:04;101272.88;;;16.77;100.00
70546;BME280;58098;51.680;5.134;2023-05-10T12:07:30;101272.03;;;16.76;100.00
70546;BME280;58098;51.680;5.134;2023-05-10T12:10:25;101271.50;;;16.73;100.00
70546;BME280;58098;51.680;5.134;2023-05-10T12:12:52;101274.03;;;16.65;100.00
70546;BME280;58098;51.680;5.134;2023-05-10T12:15:19;101261.09;;;16.54;100.00
70546;BME280;58098;51.680;5.134;2023-05-10T12:17:45;101271.50;;;16.45;100.00
70546;BME280;58098;51.680;5.134;2023-05-10T12:20:21;101278.25;;;16.58;100.00
70546;BME280;58098;51.680;5.134;2023-05-10T12:22:49;101283.00;;;16.54;100.00
70546;BME280;58098;51.680;5.134;2023-05-10T12:25:15;101277.75;;;16.44;100.00
70546;BME280;58098;51.680;5.134;2023-05-10T12:27:41;101287.97;;;16.57;100.00
70546;BME280;58098;51.680;5.134;2023-05-10T12:30:06;101270.53;;;16.46;100.00
70546;BME280;58098;51.680;5.134;2023-05-10T12:32:44;101279.84;;;16.41;100.00
70546;BME280;58098;51.680;5.134;2023-05-10T12:35:09;101287.19;;;16.47;100.00
70546;BME280;58098;51.680;5.134;2023-05-10T12:37:35;101283.09;;;16.35;100.00
70546;BME280;58098;51.680;5.134;2023-05-10T12:40:06;101272.28;;;16.28;100.00
70546;BME280;58098;51.680;5.134;2023-05-10T12:42:31;101282.03;;;16.28;100.00
70546;BME280;58098;51.680;5.134;2023-05-10T12:44:57;101289.94;;;16.28;100.00
70546;BME280;58098;51.680;5.134;2023-05-10T12:47:22;101280.78;;;16.22;100.00
70546;BME280;58098;51.680;5.134;2023-05-10T12:49:48;101278.16;;;16.22;100.00
70546;BME280;58098;51.680;5.134;2023-05-10T12:52:13;101262.88;;;16.26;100.00
70546;BME280;58098;51.680;5.134;2023-05-10T12:54:38;101286.09;;;16.13;100.00
70546;BME280;58098;51.680;5.134;2023-05-10T12:57:03;101288.16;;;16.19;100.00
70546;BME280;58098;51.680;5.134;2023-05-10T12:59:29;101286.22;;;16.11;100.00
70546;BME280;58098;51.680;5.134;2023-05-10T13:01:54;101293.19;;;16.12;100.00
70546;BME280;58098;51.680;5.134;2023-05-10T13:04:20;101291.03;;;15.98;100.00
70546;BME280;58098;51.680;5.134;2023-05-10T13:06:45;101277.75;;;15.90;100.00
70546;BME280;58098;51.680;5.134;2023-05-10T13:09:10;101295.72;;;15.95;100.00
70546;BME280;58098;51.680;5.134;2023-05-10T13:11:36;101283.56;;;15.94;100.00
70546;BME280;58098;51.680;5.134;2023-05-10T13:14:01;101305.38;;;16.13;100.00
70546;BME280;58098;51.680;5.134;2023-05-10T13:16:28;101293.63;;;16.08;100.00